Terminal Aerodrome Forecast
Issued by NWS

Current Version | Previous Version | Text Only | Print | Product List | Glossary Off
Versions: 1 2 3 4 5 6 7 8 9 10 11 12 13 14 15 16 17 18 19 20 21 22 23

000
FTUS41 KILN 271733
TAFLUK
TAF
KLUK 271733Z 2718/2818 18005KT P6SM BKN028
     FM271900 VRB05KT P6SM BKN035 BKN150
     FM272300 VRB05KT P6SM SCT035 BKN150
     FM280600 VRB04KT 5SM BR VCTS BKN040CB BKN150
     FM280800 VRB03KT 3SM BR VCTS BKN040CB BKN150
     FM281200 VRB04KT 5SM -SHRA BR VCTS OVC030CB=

USA.gov is the U.S. government's official web portal to all federal, state and local government web resources and services.